Time;durP1;ratioP1;P1;durP2;ratioP2;P2;SDS_P1;SDS_P2;PMS_P1;PMS_P2;Temp;Humidity;BMP_temperature;BMP_pressure;BME280_temperature;BME280_humidity;BME280_pressure;Samples;Min_cycle;Max_cycle;Signal;HPM_P1;HPM_P2
2023/03/08 00:00:29;;;;;;;55.70;21.10;;;;;;;-0.83;100.00;99945.75;5119513;27;20515;-83
2023/03/08 00:02:56;;;;;;;54.30;20.83;;;;;;;-0.83;100.00;99950.28;5086053;27;20035;-83
2023/03/08 00:05:22;;;;;;;55.40;21.50;;;;;;;-0.82;100.00;99952.78;5119740;27;20043;-83
2023/03/08 00:07:47;;;;;;;55.03;20.83;;;;;;;-0.81;100.00;99956.25;5085339;27;20031;-83
2023/03/08 00:10:13;;;;;;;48.37;20.43;;;;;;;-0.81;100.00;99956.25;5101740;27;20462;-83
2023/03/08 00:12:39;;;;;;;49.88;20.92;;;;;;;-0.81;100.00;99953.59;5119292;27;20031;-83
2023/03/08 00:15:05;;;;;;;54.63;21.80;;;;;;;-0.81;100.00;99950.94;5101596;27;20038;-83
2023/03/08 00:17:35;;;;;;;57.20;20.80;;;;;;;-0.81;100.00;99948.25;5101790;27;20050;-83
2023/03/08 00:20:07;;;;;;;54.85;21.17;;;;;;;-0.81;100.00;99946.47;5118641;27;20031;-83
2023/03/08 00:22:37;;;;;;;53.25;19.95;;;;;;;-0.80;100.00;99950.75;5119069;27;20491;-84
2023/03/08 00:25:04;;;;;;;51.08;20.45;;;;;;;-0.81;100.00;99948.25;5136937;27;20643;-83
2023/03/08 00:27:29;;;;;;;51.80;20.87;;;;;;;-0.80;100.00;99961.41;5118452;27;20140;-83
2023/03/08 00:29:55;;;;;;;46.72;19.00;;;;;;;-0.76;100.00;99953.97;5101988;27;20126;-83
2023/03/08 00:32:20;;;;;;;56.30;21.67;;;;;;;-0.78;100.00;99954.13;5101218;27;20031;-83
2023/03/08 00:34:45;;;;;;;58.13;22.40;;;;;;;-0.78;100.00;99959.44;5101569;27;20050;-83
2023/03/08 00:37:12;;;;;;;51.67;20.30;;;;;;;-0.77;100.00;99950.47;5118721;27;20119;-83
2023/03/08 00:39:38;;;;;;;55.83;21.90;;;;;;;-0.74;100.00;99951.94;5136597;27;20023;-82
2023/03/08 00:42:03;;;;;;;57.72;21.58;;;;;;;-0.75;100.00;99947.63;5136579;27;20034;-83
2023/03/08 00:44:29;;;;;;;57.63;22.40;;;;;;;-0.73;100.00;99953.63;5118130;27;20526;-83
2023/03/08 00:46:57;;;;;;;58.23;21.90;;;;;;;-0.71;100.00;99952.47;5118774;27;20360;-82
2023/03/08 00:49:22;;;;;;;59.72;23.67;;;;;;;-0.71;100.00;99943.63;5136031;27;20031;-83
2023/03/08 00:51:51;;;;;;;63.20;22.07;;;;;;;-0.69;100.00;99940.78;5118189;27;20034;-83
2023/03/08 00:54:16;;;;;;;56.60;21.58;;;;;;;-0.71;100.00;99935.63;5101144;27;20023;-83
2023/03/08 00:56:42;;;;;;;58.50;23.00;;;;;;;-0.69;100.00;99941.66;5100997;27;20490;-82
2023/03/08 00:59:07;;;;;;;62.00;22.83;;;;;;;-0.66;100.00;99935.16;5117802;27;20387;-83
2023/03/08 01:01:32;;;;;;;62.97;22.27;;;;;;;-0.63;100.00;99940.16;5100610;27;20125;-82
2023/03/08 01:03:58;;;;;;;62.40;22.77;;;;;;;-0.66;100.00;99940.50;5101186;27;20034;-83
2023/03/08 01:06:23;;;;;;;64.37;23.40;;;;;;;-0.65;100.00;99935.00;5118039;27;20027;-82
2023/03/08 01:08:49;;;;;;;67.50;23.57;;;;;;;-0.66;100.00;99924.50;5084055;27;20042;-83
2023/03/08 01:11:20;;;;;;;63.90;23.27;;;;;;;-0.63;100.00;99927.66;5100955;27;20467;-83
2023/03/08 01:13:47;;;;;;;58.15;21.15;;;;;;;-0.62;100.00;99916.03;5117766;27;20265;-83
2023/03/08 01:16:27;;;;;;;66.10;22.70;;;;;;;-0.61;100.00;99917.66;5136308;27;20027;-83
2023/03/08 01:18:53;;;;;;;61.50;22.80;;;;;;;-0.59;100.00;99902.34;5117615;27;20501;-83
2023/03/08 01:21:19;;;;;;;64.28;22.08;;;;;;;-0.57;100.00;99899.53;5117625;27;20027;-83
2023/03/08 01:23:45;;;;;;;72.65;23.80;;;;;;;-0.58;100.00;99893.34;5117892;27;20015;-83
2023/03/08 01:26:14;;;;;;;77.10;25.15;;;;;;;-0.54;100.00;99900.00;5117354;27;20383;-83
2023/03/08 01:28:39;;;;;;;74.45;25.15;;;;;;;-0.52;100.00;99883.84;5117501;27;20071;-83
2023/03/08 01:31:12;;;;;;;70.90;23.80;;;;;;;-0.49;100.00;99890.69;5117439;27;20031;-83
2023/03/08 01:33:37;;;;;;;74.63;23.92;;;;;;;-0.49;100.00;99877.38;5117120;27;20027;-83
2023/03/08 01:36:07;;;;;;;76.03;24.73;;;;;;;-0.49;100.00;99872.03;5117628;27;20154;-83
2023/03/08 01:38:33;;;;;;;76.13;24.50;;;;;;;-0.46;100.00;99872.53;5117584;27;20067;-83
2023/03/08 01:41:01;;;;;;;79.97;25.65;;;;;;;-0.44;100.00;99873.22;5100329;27;20475;-83
2023/03/08 01:43:31;;;;;;;82.70;25.60;;;;;;;-0.42;100.00;99873.03;5116898;27;20023;-83
2023/03/08 01:46:10;;;;;;;81.30;25.33;;;;;;;-0.41;100.00;99856.06;5135172;27;20051;-85
2023/03/08 01:48:44;;;;;;;78.32;23.50;;;;;;;-0.38;100.00;99869.03;5116464;27;20053;-84
2023/03/08 01:51:13;;;;;;;82.30;25.27;;;;;;;-0.36;100.00;99857.19;5117319;27;20092;-84
2023/03/08 01:53:39;;;;;;;83.55;24.92;;;;;;;-0.34;100.00;99850.88;5117266;27;20019;-84
2023/03/08 01:56:12;;;;;;;90.47;26.20;;;;;;;-0.35;100.00;99855.38;5117153;27;20031;-85
2023/03/08 01:58:43;;;;;;;83.90;24.20;;;;;;;-0.33;100.00;99856.03;5135230;27;20030;-85
2023/03/08 02:01:09;;;;;;;79.13;24.48;;;;;;;-0.34;100.00;99849.03;5116141;27;20071;-85
2023/03/08 02:03:34;;;;;;;96.95;27.85;;;;;;;-0.32;100.00;99851.56;5116862;27;20073;-86
2023/03/08 02:06:02;;;;;;;80.18;24.25;;;;;;;-0.30;100.00;99844.19;5116793;27;20024;-85
2023/03/08 02:08:29;;;;;;;86.60;26.87;;;;;;;-0.31;100.00;99843.38;5117601;27;20023;-85
2023/03/08 02:10:56;;;;;;;86.28;25.13;;;;;;;-0.27;100.00;99842.03;5116874;27;20748;-83
2023/03/08 02:13:22;;;;;;;87.95;25.23;;;;;;;-0.25;100.00;99836.50;5135407;27;20015;-85
2023/03/08 02:15:50;;;;;;;88.70;25.93;;;;;;;-0.29;100.00;99820.03;5099398;27;20479;-85
2023/03/08 02:18:16;;;;;;;90.90;26.00;;;;;;;-0.27;100.00;99827.88;5116778;27;20031;-84
2023/03/08 02:20:41;;;;;;;91.57;26.13;;;;;;;-0.27;100.00;99815.34;5116875;27;20035;-84
2023/03/08 02:23:11;;;;;;;90.32;25.15;;;;;;;-0.24;100.00;99815.00;5116378;27;20115;-84
2023/03/08 02:25:37;;;;;;;94.50;26.33;;;;;;;-0.22;100.00;99812.22;5116577;27;20032;-85
2023/03/08 02:28:04;;;;;;;94.57;26.27;;;;;;;-0.26;100.00;99803.69;5116345;27;20042;-85
2023/03/08 02:30:33;;;;;;;86.47;25.58;;;;;;;-0.22;100.00;99798.88;5117427;27;20086;-87
2023/03/08 02:32:59;;;;;;;89.03;25.80;;;;;;;-0.22;100.00;99807.69;5134770;27;20049;-87
2023/03/08 02:35:24;;;;;;;92.57;25.80;;;;;;;-0.19;100.00;99795.88;5116100;27;20467;-87
2023/03/08 02:37:50;;;;;;;89.23;25.23;;;;;;;-0.22;100.00;99798.88;5135200;27;20038;-87
2023/03/08 02:40:15;;;;;;;85.28;24.48;;;;;;;-0.21;100.00;99797.84;5116248;28;20125;-87
2023/03/08 02:42:41;;;;;;;88.03;24.23;;;;;;;-0.21;100.00;99798.72;5116675;27;20055;-87
2023/03/08 02:45:07;;;;;;;91.07;25.60;;;;;;;-0.20;100.00;99795.00;5115279;27;20054;-87
2023/03/08 02:47:33;;;;;;;85.38;25.35;;;;;;;-0.17;100.00;99793.03;5116108;27;20035;-88
2023/03/08 02:49:58;;;;;;;85.63;25.42;;;;;;;-0.19;100.00;99785.19;5099193;28;20123;-87
2023/03/08 02:52:24;;;;;;;82.90;24.20;;;;;;;-0.20;100.00;99787.00;5099177;28;20035;-87
2023/03/08 02:54:49;;;;;;;91.93;25.73;;;;;;;-0.18;100.00;99786.84;5083129;28;20037;-87
2023/03/08 02:57:14;;;;;;;82.37;24.60;;;;;;;-0.21;100.00;99773.88;5134454;28;20115;-87
2023/03/08 02:59:43;;;;;;;85.83;24.33;;;;;;;-0.21;100.00;99779.19;5115913;28;20057;-87
2023/03/08 03:02:08;;;;;;;80.20;24.40;;;;;;;-0.21;100.00;99774.72;5115796;28;20034;-86
2023/03/08 03:04:34;;;;;;;82.47;24.87;;;;;;;-0.22;100.00;99778.38;5116068;28;20122;-87
2023/03/08 03:06:59;;;;;;;77.20;23.67;;;;;;;-0.24;100.00;99775.03;5098699;28;20087;-87
2023/03/08 03:09:25;;;;;;;72.83;21.97;;;;;;;-0.20;100.00;99772.88;5134624;28;20068;-84
2023/03/08 03:11:51;;;;;;;79.93;23.45;;;;;;;-0.22;100.00;99754.38;5117456;27;20039;-85
2023/03/08 03:14:16;;;;;;;77.70;23.17;;;;;;;-0.19;100.00;99755.88;5103114;27;20367;-85
2023/03/08 03:16:42;;;;;;;77.97;24.02;;;;;;;-0.15;100.00;99759.00;5120015;27;20367;-85
2023/03/08 03:19:08;;;;;;;75.43;23.00;;;;;;;-0.13;100.00;99757.00;5120220;27;20050;-85
2023/03/08 03:21:33;;;;;;;75.53;23.63;;;;;;;-0.10;100.00;99751.34;5119969;27;20091;-85
2023/03/08 03:23:59;;;;;;;75.93;22.83;;;;;;;-0.10;100.00;99746.84;5119814;27;20019;-85
2023/03/08 03:26:25;;;;;;;87.13;26.37;;;;;;;-0.06;100.00;99742.81;5138187;27;20159;-85
2023/03/08 03:28:51;;;;;;;81.05;23.70;;;;;;;-0.04;100.00;99746.13;5103105;27;20376;-84
2023/03/08 03:31:19;;;;;;;78.85;23.50;;;;;;;-0.02;100.00;99725.44;5138529;27;20136;-85
2023/03/08 03:33:46;;;;;;;76.57;23.90;;;;;;;0.03;100.00;99718.75;5119731;27;20030;-85
2023/03/08 03:36:20;;;;;;;79.78;23.60;;;;;;;0.06;100.00;99716.59;5119561;27;20064;-85
2023/03/08 03:38:46;;;;;;;79.53;23.15;;;;;;;0.08;100.00;99700.41;5119584;27;20031;-87
2023/03/08 03:41:15;;;;;;;74.68;22.50;;;;;;;0.10;100.00;99701.88;5120110;27;20387;-87
2023/03/08 03:43:41;;;;;;;70.25;22.75;;;;;;;0.12;100.00;99707.06;5119501;27;20360;-87
2023/03/08 03:46:10;;;;;;;74.33;23.33;;;;;;;0.19;100.00;99704.50;5119626;27;20104;-87
2023/03/08 03:48:36;;;;;;;85.20;24.50;;;;;;;0.18;100.00;99709.03;5137876;27;20110;-85
2023/03/08 03:51:11;;;;;;;80.72;24.63;;;;;;;0.17;100.00;99702.03;5137570;27;20537;-86
2023/03/08 03:53:37;;;;;;;73.78;23.75;;;;;;;0.17;100.00;99705.50;5120239;27;20030;-85
2023/03/08 03:56:07;;;;;;;78.67;23.87;;;;;;;0.12;100.00;99702.56;5102284;27;20411;-85
2023/03/08 03:58:33;;;;;;;70.72;23.33;;;;;;;0.10;100.00;99693.88;5137307;27;20031;-85
2023/03/08 04:00:59;;;;;;;66.13;21.77;;;;;;;0.15;100.00;99693.38;5118785;27;20441;-86
2023/03/08 04:03:25;;;;;;;66.63;21.27;;;;;;;0.16;100.00;99701.19;5102749;27;20103;-86
2023/03/08 04:05:50;;;;;;;65.28;22.50;;;;;;;0.17;100.00;99688.69;5119349;27;20048;-85
2023/03/08 04:08:15;;;;;;;67.20;22.63;;;;;;;0.19;100.00;99685.84;5102102;27;20031;-85
2023/03/08 04:10:41;;;;;;;57.73;20.30;;;;;;;0.20;100.00;99684.84;5118934;27;20023;-85
2023/03/08 04:13:07;;;;;;;57.47;20.60;;;;;;;0.22;100.00;99683.63;5119493;27;20035;-85
2023/03/08 04:15:32;;;;;;;48.67;18.33;;;;;;;0.16;100.00;99676.34;5118911;27;20111;-86
2023/03/08 04:17:57;;;;;;;47.57;17.53;;;;;;;0.16;100.00;99671.00;5118809;27;20031;-85
2023/03/08 04:20:26;;;;;;;45.70;17.50;;;;;;;0.15;100.00;99662.19;5102104;27;20039;-85
2023/03/08 04:22:51;;;;;;;47.50;16.90;;;;;;;0.17;100.00;99659.34;5101240;28;20123;-85
2023/03/08 04:25:17;;;;;;;48.57;16.37;;;;;;;0.16;100.00;99655.00;5118315;27;20123;-85
2023/03/08 04:27:43;;;;;;;49.10;17.02;;;;;;;0.15;100.00;99648.84;5137094;27;20028;-85
2023/03/08 04:30:12;;;;;;;45.97;16.37;;;;;;;0.16;100.00;99641.66;5118610;27;20027;-85
2023/03/08 04:32:37;;;;;;;42.22;15.82;;;;;;;0.10;100.00;99640.53;5137530;27;20031;-85
2023/03/08 04:35:03;;;;;;;34.90;13.83;;;;;;;0.09;100.00;99630.88;5118585;27;20037;-85
2023/03/08 04:37:29;;;;;;;43.83;16.27;;;;;;;0.10;100.00;99632.53;5118313;27;20287;-86
2023/03/08 04:39:57;;;;;;;42.88;16.15;;;;;;;0.05;100.00;99623.41;5118151;27;20067;-86
2023/03/08 04:42:26;;;;;;;41.10;15.43;;;;;;;0.03;100.00;99628.09;5118665;27;20479;-86
2023/03/08 04:44:51;;;;;;;42.22;14.30;;;;;;;0.01;100.00;99620.25;5118141;27;20133;-86
2023/03/08 04:47:17;;;;;;;38.77;15.97;;;;;;;0.01;100.00;99611.44;5118383;27;20168;-87
2023/03/08 04:49:45;;;;;;;37.88;15.02;;;;;;;0.01;100.00;99611.44;5118039;27;20054;-85
2023/03/08 04:52:11;;;;;;;40.87;15.13;;;;;;;-0.03;100.00;99611.81;5118097;27;20483;-86
2023/03/08 04:54:36;;;;;;;34.72;13.85;;;;;;;-0.01;100.00;99615.09;5118828;27;20023;-85
2023/03/08 04:57:02;;;;;;;38.13;15.20;;;;;;;-0.03;100.00;99603.81;5118615;27;20023;-86
2023/03/08 04:59:27;;;;;;;37.83;14.00;;;;;;;-0.02;100.00;99602.78;5101459;27;20375;-86
2023/03/08 05:01:52;;;;;;;37.77;14.53;;;;;;;0.02;100.00;99592.59;5118621;27;20370;-86
2023/03/08 05:04:18;;;;;;;35.22;13.70;;;;;;;-0.01;100.00;99585.78;5118319;27;20504;-86
2023/03/08 05:06:43;;;;;;;39.65;14.00;;;;;;;0.02;100.00;99579.25;5117911;27;20031;-85
2023/03/08 05:09:09;;;;;;;32.40;13.73;;;;;;;0.02;100.00;99576.59;5118196;27;20114;-86
2023/03/08 05:11:36;;;;;;;31.07;12.03;;;;;;;0.05;100.00;99575.41;5100832;27;20429;-85
2023/03/08 05:14:04;;;;;;;33.92;13.13;;;;;;;0.09;100.00;99572.22;5117947;27;20024;-86
2023/03/08 05:16:32;;;;;;;28.02;11.20;;;;;;;0.08;100.00;99572.38;5117607;27;20023;-86
2023/03/08 05:18:57;;;;;;;30.60;11.97;;;;;;;0.09;100.00;99569.53;5136372;27;20020;-85
2023/03/08 05:21:23;;;;;;;32.25;12.43;;;;;;;0.07;100.00;99557.38;5117885;27;20131;-85
2023/03/08 05:23:51;;;;;;;29.83;11.90;;;;;;;0.08;100.00;99559.88;5117274;27;20019;-86
2023/03/08 05:26:17;;;;;;;29.55;12.38;;;;;;;0.09;100.00;99555.34;5117721;27;20042;-85
2023/03/08 05:28:42;;;;;;;31.52;11.93;;;;;;;0.09;100.00;99550.88;5117700;27;20035;-85
2023/03/08 05:31:18;;;;;;;29.67;12.13;;;;;;;0.11;100.00;99548.84;5117133;27;20027;-86
2023/03/08 05:33:45;;;;;;;28.35;12.00;;;;;;;0.12;100.00;99545.19;5117298;27;20091;-85
2023/03/08 05:36:12;;;;;;;29.95;12.65;;;;;;;0.14;100.00;99526.31;5117304;27;20038;-85
2023/03/08 05:38:38;;;;;;;34.90;12.27;;;;;;;0.13;100.00;99525.50;5117279;27;20023;-86
2023/03/08 05:41:11;;;;;;;28.77;11.82;;;;;;;0.14;100.00;99519.16;5100932;27;20051;-86
2023/03/08 05:43:36;;;;;;;28.50;12.10;;;;;;;0.12;100.00;99507.84;5117428;27;20027;-86
2023/03/08 05:46:08;;;;;;;23.67;10.10;;;;;;;0.10;100.00;99504.50;5135370;27;20043;-86
2023/03/08 05:48:37;;;;;;;28.40;10.02;;;;;;;0.06;100.00;99502.38;5135503;27;20068;-85
2023/03/08 05:51:20;;;;;;;23.17;9.40;;;;;;;0.05;100.00;99498.91;5117684;27;20453;-85
2023/03/08 05:53:46;;;;;;;22.40;9.05;;;;;;;0.01;100.00;99488.78;5135672;27;20023;-86
2023/03/08 05:56:14;;;;;;;18.60;7.63;;;;;;;-0.03;100.00;99482.94;5117030;27;20383;-85
2023/03/08 05:58:43;;;;;;;18.10;7.43;;;;;;;-0.05;100.00;99485.78;5116778;27;20023;-87
2023/03/08 06:01:20;;;;;;;16.93;6.60;;;;;;;-0.06;100.00;99468.16;5101017;27;20069;-86
2023/03/08 06:03:48;;;;;;;20.92;7.43;;;;;;;-0.09;100.00;99473.84;5135026;27;20026;-86
2023/03/08 06:06:14;;;;;;;16.25;7.75;;;;;;;-0.10;100.00;99468.72;5116434;27;20130;-86
2023/03/08 06:08:40;;;;;;;14.65;7.15;;;;;;;-0.13;100.00;99463.69;5116639;27;20023;-86
2023/03/08 06:11:06;;;;;;;18.38;6.50;;;;;;;-0.19;100.00;99466.09;5135258;27;20035;-86
2023/03/08 06:13:32;;;;;;;16.35;6.72;;;;;;;-0.19;100.00;99468.75;5135564;27;20116;-86
2023/03/08 06:15:58;;;;;;;16.27;5.88;;;;;;;-0.22;100.00;99474.44;5116513;27;20065;-86
2023/03/08 06:18:25;;;;;;;12.93;5.75;;;;;;;-0.26;100.00;99467.00;5116377;27;20027;-86
2023/03/08 06:20:56;;;;;;;14.50;5.20;;;;;;;-0.28;100.00;99467.19;5134900;27;20035;-83
2023/03/08 06:23:22;;;;;;;12.68;5.10;;;;;;;-0.34;100.00;99465.19;5100308;27;20404;-83
2023/03/08 06:25:49;;;;;;;10.73;4.90;;;;;;;-0.37;100.00;99458.41;5116981;27;20034;-86
2023/03/08 06:28:15;;;;;;;14.10;4.53;;;;;;;-0.42;100.00;99466.09;5135432;27;20490;-87
2023/03/08 06:30:41;;;;;;;9.48;4.32;;;;;;;-0.40;100.00;99461.44;5117580;27;20019;-87
2023/03/08 06:33:06;;;;;;;9.70;4.73;;;;;;;-0.42;100.00;99452.78;5099412;27;20443;-87
2023/03/08 06:35:31;;;;;;;10.77;5.03;;;;;;;-0.40;100.00;99449.94;5135155;27;20098;-87
2023/03/08 06:37:57;;;;;;;10.70;5.00;;;;;;;-0.42;100.00;99449.28;5116192;27;20062;-84
2023/03/08 06:40:22;;;;;;;10.00;4.05;;;;;;;-0.47;100.00;99444.50;5134713;27;20110;-86
2023/03/08 06:42:48;;;;;;;7.18;3.90;;;;;;;-0.48;100.00;99439.34;5099934;27;20340;-85
2023/03/08 06:45:13;;;;;;;9.47;3.60;;;;;;;-0.50;100.00;99441.34;5134301;27;20054;-87
2023/03/08 06:47:39;;;;;;;9.13;3.23;;;;;;;-0.53;100.00;99447.88;5134165;27;20047;-84
2023/03/08 06:50:04;;;;;;;6.00;2.55;;;;;;;-0.57;100.00;99444.72;5115914;28;20024;-84
2023/03/08 06:52:36;;;;;;;6.10;2.47;;;;;;;-0.59;100.00;99449.41;5115914;28;20139;-84
2023/03/08 06:55:02;;;;;;;6.75;2.47;;;;;;;-0.63;100.00;99465.94;5116719;28;20348;-85
2023/03/08 06:57:28;;;;;;;6.18;2.53;;;;;;;-0.60;100.00;99458.41;5134347;28;20033;-85
2023/03/08 06:59:53;;;;;;;7.23;3.07;;;;;;;-0.62;100.00;99447.09;5099095;28;20035;-83
2023/03/08 07:02:19;;;;;;;6.90;2.93;;;;;;;-0.57;100.00;99454.56;5133936;28;20092;-84
2023/03/08 07:04:44;;;;;;;5.67;2.23;;;;;;;-0.63;100.00;99450.78;5116049;28;20527;-84
2023/03/08 07:07:09;;;;;;;8.63;2.20;;;;;;;-0.62;100.00;99452.44;5099080;28;20074;-83
2023/03/08 07:09:35;;;;;;;4.67;2.50;;;;;;;-0.61;100.00;99446.06;5098708;28;20024;-83
2023/03/08 07:12:00;;;;;;;5.90;2.10;;;;;;;-0.59;100.00;99438.75;5115978;28;20114;-83
2023/03/08 07:14:26;;;;;;;4.43;2.33;;;;;;;-0.58;100.00;99436.91;5098375;28;20031;-83
2023/03/08 07:16:51;;;;;;;5.07;2.33;;;;;;;-0.61;100.00;99429.28;5098112;28;20039;-83
2023/03/08 07:19:17;;;;;;;7.13;2.27;;;;;;;-0.62;100.00;99425.78;5115970;28;20038;-85
2023/03/08 07:21:43;;;;;;;6.53;2.13;;;;;;;-0.60;100.00;99422.94;5133578;28;20355;-83
2023/03/08 07:24:10;;;;;;;6.13;2.97;;;;;;;-0.60;100.00;99428.28;5134384;28;20095;-85
2023/03/08 07:26:35;;;;;;;8.82;2.53;;;;;;;-0.57;100.00;99425.25;5133995;28;20035;-85
2023/03/08 07:29:01;;;;;;;4.30;1.97;;;;;;;-0.53;100.00;99413.25;5098912;28;20056;-85
2023/03/08 07:31:28;;;;;;;6.27;2.33;;;;;;;-0.55;100.00;99408.09;5115246;28;20161;-85
2023/03/08 07:33:55;;;;;;;7.63;2.45;;;;;;;-0.51;100.00;99405.06;5115807;28;20070;-85
2023/03/08 07:36:20;;;;;;;4.97;2.20;;;;;;;-0.51;100.00;99402.41;5115227;28;20030;-85
2023/03/08 07:38:46;;;;;;;4.20;2.07;;;;;;;-0.43;100.00;99395.19;5115400;28;20373;-86
2023/03/08 07:41:11;;;;;;;4.95;2.08;;;;;;;-0.45;100.00;99399.84;5115960;28;20039;-85
2023/03/08 07:43:42;;;;;;;6.00;2.40;;;;;;;-0.45;100.00;99397.16;5098247;28;20123;-86
2023/03/08 07:46:08;;;;;;;7.38;2.30;;;;;;;-0.44;100.00;99388.19;5098728;28;20555;-86
2023/03/08 07:48:33;;;;;;;5.28;2.28;;;;;;;-0.40;100.00;99384.16;5115173;28;20114;-84
2023/03/08 07:51:08;;;;;;;6.10;3.07;;;;;;;-0.41;100.00;99387.81;5115269;28;20172;-84
2023/03/08 07:53:34;;;;;;;10.82;3.17;;;;;;;-0.38;100.00;99389.31;5115579;28;20046;-85
2023/03/08 07:55:59;;;;;;;9.50;3.83;;;;;;;-0.36;100.00;99393.41;5115094;28;20061;-84
2023/03/08 07:58:26;;;;;;;9.40;4.13;;;;;;;-0.39;100.00;99385.78;5099991;27;20496;-84
2023/03/08 08:00:52;;;;;;;12.98;4.35;;;;;;;-0.37;100.00;99374.94;5119616;27;20023;-85
2023/03/08 08:03:17;;;;;;;9.73;4.77;;;;;;;-0.30;100.00;99373.22;5119023;27;20099;-85
2023/03/08 08:05:43;;;;;;;11.25;4.68;;;;;;;-0.34;100.00;99355.09;5137194;27;20060;-85
2023/03/08 08:08:09;;;;;;;11.63;4.87;;;;;;;-0.25;100.00;99376.19;5119043;27;20030;-84
2023/03/08 08:10:35;;;;;;;10.27;5.00;;;;;;;-0.27;100.00;99369.38;5119432;27;20039;-84
2023/03/08 08:13:00;;;;;;;10.80;5.17;;;;;;;-0.23;100.00;99362.69;5119180;27;20026;-85
2023/03/08 08:15:26;;;;;;;10.48;5.45;;;;;;;-0.22;100.00;99361.69;5101906;27;20383;-84
2023/03/08 08:17:52;;;;;;;11.30;5.40;;;;;;;-0.19;100.00;99358.63;5137253;27;20148;-85
2023/03/08 08:20:17;;;;;;;12.47;6.10;;;;;;;-0.15;100.00;99361.75;5136899;27;20042;-85
2023/03/08 08:29:49;;;;;;;10.17;5.13;;;;;;;0.06;100.00;99331.69;5135963;27;20091;-85
2023/03/08 08:36:05;;;;;;;9.90;5.47;;;;;;;0.09;100.00;99334.00;5137103;27;20045;-86
2023/03/08 08:38:33;;;;;;;11.00;5.75;;;;;;;-0.05;100.00;99314.31;5136706;27;20027;-85
2023/03/08 08:41:03;;;;;;;8.23;5.05;;;;;;;0.04;100.00;99320.41;5118747;27;20038;-85
2023/03/08 09:06:58;;;;;;;8.10;4.43;;;;;;;0.36;100.00;99358.38;5116333;28;20058;-86
2023/03/08 09:26:39;;;;;;;12.02;6.70;;;;;;;0.36;100.00;99289.00;5114939;28;20039;-87
2023/03/08 10:04:39;;;;;;;12.93;6.38;;;;;;;1.80;100.00;99234.53;5112539;27;20051;-86
2023/03/08 11:40:37;;;;;;;11.63;7.88;;;;;;;3.11;100.00;99199.41;5118109;28;20039;-93
2023/03/08 11:43:21;;;;;;;;;;;;;;;;;;;;;
2023/03/08 11:45:53;;;;;;;11.95;7.80;;;;;;;3.02;100.00;99173.84;5118325;28;20046;-93
2023/03/08 11:48:59;;;;;;;12.55;8.05;;;;;;;3.04;100.00;99166.44;5101032;28;20023;-93
2023/03/08 11:51:59;;;;;;;13.75;7.68;;;;;;;3.07;100.00;99165.19;5100978;28;20028;-93
2023/03/08 11:55:19;;;;;;;11.98;7.32;;;;;;;3.23;100.00;99166.63;5099701;28;20039;-93
2023/03/08 11:58:02;;;;;;;;;;;;;;;;;;;;;
2023/03/08 12:00:45;;;;;;;9.88;6.57;;;;;;;3.26;100.00;99161.69;5117683;28;20028;-94
2023/03/08 12:03:42;;;;;;;;;;;;;;;;;;;;;
2023/03/08 12:06:43;;;;;;;;;;;;;;;;;;;;;
2023/03/08 12:10:28;;;;;;;;;;;;;;;;;;;;;
2023/03/08 12:16:22;;;;;;;9.27;5.82;;;;;;;2.95;100.00;99148.91;5118288;28;20536;-93
2023/03/08 12:19:05;;;;;;;7.32;5.93;;;;;;;2.92;100.00;99143.97;5104565;28;20028;-88
2023/03/08 13:45:28;;;;;;;10.55;7.32;;;;;;;3.14;100.00;99105.22;5113536;27;20220;-88
2023/03/08 13:48:18;;;;;;;12.40;7.13;;;;;;;3.12;100.00;99101.09;5114834;28;20063;-88
2023/03/08 13:50:57;;;;;;;11.32;7.55;;;;;;;3.09;100.00;99118.41;5097000;28;20032;-88
2023/03/08 14:07:02;;;;;;;12.65;7.22;;;;;;;2.76;100.00;99095.16;5071347;28;20047;-88
2023/03/08 14:20:17;;;;;;;12.90;7.63;;;;;;;2.83;100.00;99089.78;5070997;28;20036;-88
2023/03/08 14:22:53;;;;;;;11.77;6.95;;;;;;;2.76;100.00;99091.66;5054777;28;20035;-87
2023/03/08 14:25:38;;;;;;;12.53;8.00;;;;;;;2.78;100.00;99103.00;5054734;28;20033;-87
2023/03/08 14:42:21;;;;;;;12.07;7.37;;;;;;;2.75;100.00;99100.72;5030831;28;20557;-89
2023/03/08 15:02:31;;;;;;;15.38;8.32;;;;;;;2.83;100.00;99111.22;5071181;28;20508;-89
2023/03/08 15:04:58;;;;;;;16.13;8.82;;;;;;;2.72;100.00;99096.59;5054258;28;20052;-89
2023/03/08 15:07:34;;;;;;;14.95;8.13;;;;;;;2.63;100.00;99092.50;5054460;28;20048;-89
2023/03/08 15:20:49;;;;;;;;;;;;;;;;;;;;;
2023/03/08 15:23:39;;;;;;;13.43;7.25;;;;;;;2.58;100.00;99077.06;5078242;28;20042;-92
2023/03/08 15:26:56;;;;;;;12.93;7.35;;;;;;;2.60;100.00;99077.66;5058912;28;20035;-91
2023/03/08 15:29:35;;;;;;;12.47;6.83;;;;;;;2.45;100.00;99071.69;5068047;28;20465;-91
2023/03/08 15:32:17;;;;;;;12.73;7.10;;;;;;;2.43;100.00;99076.41;5058199;28;20063;-91
2023/03/08 15:34:49;;;;;;;12.95;7.28;;;;;;;2.36;100.00;99070.25;5059588;28;20047;-91
2023/03/08 15:37:26;;;;;;;15.60;7.78;;;;;;;2.39;100.00;99081.38;5059216;28;20085;-91
2023/03/08 15:40:22;;;;;;;13.90;8.10;;;;;;;2.35;100.00;99072.09;5042461;28;20547;-91
2023/03/08 15:42:57;;;;;;;15.17;7.83;;;;;;;2.33;100.00;99076.81;5074400;28;20072;-91
2023/03/08 15:45:51;;;;;;;16.10;8.57;;;;;;;2.34;100.00;99086.50;5041146;28;20064;-91
2023/03/08 15:48:17;;;;;;;15.38;8.85;;;;;;;2.27;100.00;99078.50;5076863;28;20112;-91
2023/03/08 15:50:49;;;;;;;14.68;8.07;;;;;;;2.19;100.00;99070.66;5098478;28;20390;-91
2023/03/08 15:53:46;;;;;;;16.27;8.80;;;;;;;2.24;100.00;99076.22;5117252;28;20028;-91
2023/03/08 15:56:11;;;;;;;15.67;8.47;;;;;;;2.14;100.00;99067.78;5099779;28;20092;-91
2023/03/08 15:58:54;;;;;;;19.02;9.30;;;;;;;2.20;100.00;99076.81;5099148;28;20118;-90
2023/03/08 16:01:26;;;;;;;20.00;9.73;;;;;;;2.13;100.00;99066.13;5099409;28;20073;-89
2023/03/08 16:04:05;;;;;;;15.93;8.52;;;;;;;2.18;100.00;99062.81;5098778;28;20020;-90
2023/03/08 16:06:30;;;;;;;17.50;8.80;;;;;;;2.13;100.00;99055.41;5099527;28;20066;-90
2023/03/08 16:08:58;;;;;;;16.53;8.83;;;;;;;2.12;100.00;99064.47;5098823;28;20122;-90
2023/03/08 16:11:26;;;;;;;17.60;9.07;;;;;;;2.10;100.00;99063.84;5082276;28;20047;-90
2023/03/08 16:14:07;;;;;;;16.77;9.23;;;;;;;2.14;100.00;99069.59;5082058;28;20440;-90
2023/03/08 16:16:40;;;;;;;17.38;8.52;;;;;;;2.11;100.00;99073.50;5099600;28;20031;-90
2023/03/08 16:19:06;;;;;;;15.35;8.13;;;;;;;2.12;100.00;99083.19;5097771;28;20365;-90
2023/03/08 16:21:31;;;;;;;15.27;8.37;;;;;;;2.12;100.00;99091.22;5098342;28;20039;-90
2023/03/08 16:24:01;;;;;;;18.67;9.57;;;;;;;2.02;100.00;99091.63;5082221;28;20035;-89
2023/03/08 16:26:29;;;;;;;17.98;8.35;;;;;;;2.01;100.00;99089.13;5081454;28;20039;-89
2023/03/08 16:28:57;;;;;;;16.67;8.65;;;;;;;2.04;100.00;99084.22;5098752;28;20023;-89
2023/03/08 16:31:25;;;;;;;16.42;8.60;;;;;;;1.97;100.00;99080.69;5081415;28;20039;-89
2023/03/08 16:33:53;;;;;;;15.98;8.80;;;;;;;2.00;100.00;99093.66;5098459;28;20024;-89
2023/03/08 16:36:21;;;;;;;15.80;8.60;;;;;;;1.97;100.00;99086.03;5081536;28;20089;-90
2023/03/08 16:38:58;;;;;;;17.73;8.82;;;;;;;2.00;100.00;99079.47;5098220;28;20471;-89
2023/03/08 16:41:28;;;;;;;18.20;8.52;;;;;;;1.99;100.00;99085.84;5083071;28;20035;-89
2023/03/08 16:44:27;;;;;;;13.82;7.57;;;;;;;1.90;100.00;99075.31;5082228;28;20053;-89
2023/03/08 16:46:53;;;;;;;16.90;7.53;;;;;;;1.81;100.00;99068.50;5118950;28;20085;-89
2023/03/08 16:49:29;;;;;;;18.08;8.60;;;;;;;1.78;100.00;99068.09;5099432;28;20089;-90
2023/03/08 16:51:57;;;;;;;17.17;7.97;;;;;;;1.80;100.00;99082.09;5098731;28;20066;-89
2023/03/08 16:54:43;;;;;;;13.57;7.65;;;;;;;1.69;100.00;99068.28;5080799;28;20027;-89
2023/03/08 16:57:18;;;;;;;13.10;7.53;;;;;;;1.67;100.00;99067.66;5115988;28;20032;-89
2023/03/08 17:00:14;;;;;;;12.65;7.93;;;;;;;1.69;100.00;99075.47;5116892;28;20024;-89
2023/03/08 17:02:40;;;;;;;16.58;8.40;;;;;;;1.58;100.00;99069.69;5089615;28;20448;-89
2023/03/08 17:05:06;;;;;;;15.98;7.85;;;;;;;1.54;100.00;99068.44;5097898;28;20047;-90
2023/03/08 17:07:34;;;;;;;13.33;7.80;;;;;;;1.58;100.00;99077.72;5099214;28;20472;-90
2023/03/08 17:10:02;;;;;;;15.15;7.07;;;;;;;1.55;100.00;99070.09;5083276;28;20019;-89